sensor_id;sensor_type;location;lat;lon;timestamp;P1;durP1;ratioP1;P2;durP2;ratioP2
80891;SDS011;70343;51.530;5.050;2023-08-06T00:00:15;5.00;;;3.58;;
80891;SDS011;70343;51.530;5.050;2023-08-06T00:02:41;4.93;;;3.20;;
80891;SDS011;70343;51.530;5.050;2023-08-06T00:05:07;3.90;;;2.75;;
80891;SDS011;70343;51.530;5.050;2023-08-06T00:07:32;4.40;;;3.22;;
80891;SDS011;70343;51.530;5.050;2023-08-06T00:09:58;3.90;;;3.05;;
80891;SDS011;70343;51.530;5.050;2023-08-06T00:12:23;4.88;;;3.13;;
80891;SDS011;70343;51.530;5.050;2023-08-06T00:14:52;5.00;;;3.63;;
80891;SDS011;70343;51.530;5.050;2023-08-06T00:17:18;5.28;;;3.03;;
80891;SDS011;70343;51.530;5.050;2023-08-06T00:19:44;3.65;;;2.75;;
80891;SDS011;70343;51.530;5.050;2023-08-06T00:22:09;6.07;;;2.92;;
80891;SDS011;70343;51.530;5.050;2023-08-06T00:24:35;4.78;;;3.15;;
80891;SDS011;70343;51.530;5.050;2023-08-06T00:27:01;7.47;;;3.20;;
80891;SDS011;70343;51.530;5.050;2023-08-06T00:29:27;4.15;;;3.15;;
80891;SDS011;70343;51.530;5.050;2023-08-06T00:31:52;3.40;;;3.00;;
80891;SDS011;70343;51.530;5.050;2023-08-06T00:34:18;5.05;;;4.05;;
80891;SDS011;70343;51.530;5.050;2023-08-06T00:36:43;6.07;;;3.22;;
80891;SDS011;70343;51.530;5.050;2023-08-06T00:39:09;6.03;;;3.85;;
80891;SDS011;70343;51.530;5.050;2023-08-06T00:41:34;6.90;;;4.07;;
80891;SDS011;70343;51.530;5.050;2023-08-06T00:44:00;4.82;;;3.33;;
80891;SDS011;70343;51.530;5.050;2023-08-06T00:46:26;6.43;;;3.33;;
80891;SDS011;70343;51.530;5.050;2023-08-06T00:48:52;3.85;;;3.28;;
80891;SDS011;70343;51.530;5.050;2023-08-06T00:51:18;3.42;;;2.88;;
80891;SDS011;70343;51.530;5.050;2023-08-06T00:53:44;3.53;;;2.97;;
80891;SDS011;70343;51.530;5.050;2023-08-06T00:56:10;6.28;;;3.75;;
80891;SDS011;70343;51.530;5.050;2023-08-06T00:58:36;4.40;;;3.67;;
80891;SDS011;70343;51.530;5.050;2023-08-06T01:01:02;4.07;;;2.97;;
80891;SDS011;70343;51.530;5.050;2023-08-06T01:03:27;4.45;;;3.50;;
80891;SDS011;70343;51.530;5.050;2023-08-06T01:05:53;3.65;;;2.50;;
80891;SDS011;70343;51.530;5.050;2023-08-06T01:11:30;9.43;;;3.15;;
80891;SDS011;70343;51.530;5.050;2023-08-06T01:14:08;4.95;;;2.92;;
80891;SDS011;70343;51.530;5.050;2023-08-06T01:16:41;5.95;;;3.88;;
80891;SDS011;70343;51.530;5.050;2023-08-06T01:19:16;4.13;;;2.92;;
80891;SDS011;70343;51.530;5.050;2023-08-06T01:21:42;4.53;;;3.38;;
80891;SDS011;70343;51.530;5.050;2023-08-06T01:24:08;4.90;;;3.88;;
80891;SDS011;70343;51.530;5.050;2023-08-06T01:26:36;5.07;;;3.38;;
80891;SDS011;70343;51.530;5.050;2023-08-06T01:31:31;6.22;;;2.95;;
80891;SDS011;70343;51.530;5.050;2023-08-06T01:33:59;5.35;;;3.33;;
80891;SDS011;70343;51.530;5.050;2023-08-06T01:36:28;5.95;;;3.40;;
80891;SDS011;70343;51.530;5.050;2023-08-06T01:38:54;6.85;;;3.60;;
80891;SDS011;70343;51.530;5.050;2023-08-06T01:41:19;4.60;;;3.25;;
80891;SDS011;70343;51.530;5.050;2023-08-06T01:43:45;4.50;;;3.25;;
80891;SDS011;70343;51.530;5.050;2023-08-06T01:46:10;7.45;;;3.40;;
80891;SDS011;70343;51.530;5.050;2023-08-06T01:48:37;4.40;;;3.45;;
80891;SDS011;70343;51.530;5.050;2023-08-06T01:51:06;4.97;;;3.55;;
80891;SDS011;70343;51.530;5.050;2023-08-06T01:53:32;4.15;;;3.75;;
80891;SDS011;70343;51.530;5.050;2023-08-06T01:55:58;5.07;;;3.60;;
80891;SDS011;70343;51.530;5.050;2023-08-06T01:58:24;4.40;;;2.85;;
80891;SDS011;70343;51.530;5.050;2023-08-06T02:00:49;4.80;;;3.67;;
80891;SDS011;70343;51.530;5.050;2023-08-06T02:03:15;6.72;;;3.58;;
80891;SDS011;70343;51.530;5.050;2023-08-06T02:05:40;8.23;;;3.90;;
80891;SDS011;70343;51.530;5.050;2023-08-06T02:08:07;4.43;;;3.35;;
80891;SDS011;70343;51.530;5.050;2023-08-06T02:10:33;6.18;;;2.83;;
80891;SDS011;70343;51.530;5.050;2023-08-06T02:12:59;5.35;;;3.95;;
80891;SDS011;70343;51.530;5.050;2023-08-06T02:15:24;4.68;;;3.35;;
80891;SDS011;70343;51.530;5.050;2023-08-06T02:17:50;5.25;;;3.80;;
80891;SDS011;70343;51.530;5.050;2023-08-06T02:20:15;5.80;;;3.55;;
80891;SDS011;70343;51.530;5.050;2023-08-06T02:22:41;4.97;;;3.60;;
80891;SDS011;70343;51.530;5.050;2023-08-06T02:25:07;6.00;;;4.38;;
80891;SDS011;70343;51.530;5.050;2023-08-06T02:27:34;6.07;;;3.47;;
80891;SDS011;70343;51.530;5.050;2023-08-06T02:30:00;8.05;;;4.40;;
80891;SDS011;70343;51.530;5.050;2023-08-06T02:32:25;5.55;;;4.20;;
80891;SDS011;70343;51.530;5.050;2023-08-06T02:34:51;6.63;;;3.53;;
80891;SDS011;70343;51.530;5.050;2023-08-06T02:37:17;4.72;;;3.63;;
80891;SDS011;70343;51.530;5.050;2023-08-06T02:39:44;9.15;;;3.90;;
80891;SDS011;70343;51.530;5.050;2023-08-06T02:42:09;5.38;;;3.80;;
80891;SDS011;70343;51.530;5.050;2023-08-06T02:44:35;4.32;;;3.38;;
80891;SDS011;70343;51.530;5.050;2023-08-06T02:47:01;5.13;;;3.83;;
80891;SDS011;70343;51.530;5.050;2023-08-06T02:49:27;5.10;;;3.80;;
80891;SDS011;70343;51.530;5.050;2023-08-06T02:51:53;5.32;;;4.00;;
80891;SDS011;70343;51.530;5.050;2023-08-06T02:54:18;4.22;;;3.83;;
80891;SDS011;70343;51.530;5.050;2023-08-06T02:56:44;4.55;;;3.80;;
80891;SDS011;70343;51.530;5.050;2023-08-06T02:59:21;6.32;;;3.83;;
80891;SDS011;70343;51.530;5.050;2023-08-06T03:02:12;4.65;;;4.25;;
80891;SDS011;70343;51.530;5.050;2023-08-06T03:04:55;12.75;;;4.68;;
80891;SDS011;70343;51.530;5.050;2023-08-06T03:07:25;6.15;;;4.45;;
80891;SDS011;70343;51.530;5.050;2023-08-06T03:09:55;9.07;;;4.85;;
80891;SDS011;70343;51.530;5.050;2023-08-06T03:12:21;7.15;;;4.40;;
80891;SDS011;70343;51.530;5.050;2023-08-06T03:14:47;7.57;;;4.57;;
80891;SDS011;70343;51.530;5.050;2023-08-06T03:17:14;6.68;;;4.47;;
80891;SDS011;70343;51.530;5.050;2023-08-06T03:19:40;6.38;;;4.20;;
80891;SDS011;70343;51.530;5.050;2023-08-06T03:22:06;5.20;;;4.03;;
80891;SDS011;70343;51.530;5.050;2023-08-06T03:24:33;5.63;;;4.13;;
80891;SDS011;70343;51.530;5.050;2023-08-06T03:26:59;6.22;;;4.18;;
80891;SDS011;70343;51.530;5.050;2023-08-06T03:29:24;6.50;;;4.22;;
80891;SDS011;70343;51.530;5.050;2023-08-06T03:31:51;6.43;;;4.75;;
80891;SDS011;70343;51.530;5.050;2023-08-06T03:34:17;4.72;;;3.80;;
80891;SDS011;70343;51.530;5.050;2023-08-06T03:36:43;9.35;;;5.00;;
80891;SDS011;70343;51.530;5.050;2023-08-06T03:39:09;7.10;;;4.65;;
80891;SDS011;70343;51.530;5.050;2023-08-06T03:41:35;6.15;;;4.13;;
80891;SDS011;70343;51.530;5.050;2023-08-06T03:44:01;7.00;;;4.72;;
80891;SDS011;70343;51.530;5.050;2023-08-06T03:46:29;4.72;;;4.03;;
80891;SDS011;70343;51.530;5.050;2023-08-06T03:48:57;4.85;;;4.30;;
80891;SDS011;70343;51.530;5.050;2023-08-06T03:51:24;6.88;;;4.55;;
80891;SDS011;70343;51.530;5.050;2023-08-06T03:53:51;5.55;;;4.07;;
80891;SDS011;70343;51.530;5.050;2023-08-06T03:56:16;5.47;;;4.18;;
80891;SDS011;70343;51.530;5.050;2023-08-06T03:58:42;6.20;;;4.75;;
80891;SDS011;70343;51.530;5.050;2023-08-06T04:01:07;7.88;;;5.05;;
80891;SDS011;70343;51.530;5.050;2023-08-06T04:03:39;4.93;;;4.25;;
80891;SDS011;70343;51.530;5.050;2023-08-06T04:06:06;5.38;;;4.88;;
80891;SDS011;70343;51.530;5.050;2023-08-06T04:08:32;6.50;;;4.40;;
80891;SDS011;70343;51.530;5.050;2023-08-06T04:10:57;5.75;;;4.70;;
80891;SDS011;70343;51.530;5.050;2023-08-06T04:13:23;5.18;;;3.95;;
80891;SDS011;70343;51.530;5.050;2023-08-06T04:15:48;5.53;;;4.38;;
80891;SDS011;70343;51.530;5.050;2023-08-06T04:18:14;6.20;;;4.35;;
80891;SDS011;70343;51.530;5.050;2023-08-06T04:20:43;6.40;;;4.60;;
80891;SDS011;70343;51.530;5.050;2023-08-06T04:23:10;7.47;;;4.60;;
80891;SDS011;70343;51.530;5.050;2023-08-06T04:25:36;5.80;;;4.85;;
80891;SDS011;70343;51.530;5.050;2023-08-06T04:28:01;5.90;;;4.60;;
80891;SDS011;70343;51.530;5.050;2023-08-06T04:30:27;6.82;;;4.63;;
80891;SDS011;70343;51.530;5.050;2023-08-06T04:32:53;5.65;;;4.80;;
80891;SDS011;70343;51.530;5.050;2023-08-06T04:35:19;6.65;;;4.78;;
80891;SDS011;70343;51.530;5.050;2023-08-06T04:37:45;6.63;;;4.57;;
80891;SDS011;70343;51.530;5.050;2023-08-06T04:40:11;5.72;;;4.85;;
80891;SDS011;70343;51.530;5.050;2023-08-06T04:42:37;12.18;;;5.35;;
80891;SDS011;70343;51.530;5.050;2023-08-06T04:45:02;7.00;;;5.40;;
80891;SDS011;70343;51.530;5.050;2023-08-06T04:47:28;5.80;;;4.35;;
80891;SDS011;70343;51.530;5.050;2023-08-06T04:49:53;6.40;;;5.20;;
80891;SDS011;70343;51.530;5.050;2023-08-06T04:52:19;5.88;;;4.75;;
80891;SDS011;70343;51.530;5.050;2023-08-06T04:54:45;5.78;;;4.70;;
80891;SDS011;70343;51.530;5.050;2023-08-06T04:57:10;6.07;;;4.38;;
80891;SDS011;70343;51.530;5.050;2023-08-06T04:59:36;6.47;;;4.00;;
80891;SDS011;70343;51.530;5.050;2023-08-06T05:02:01;6.63;;;3.97;;
80891;SDS011;70343;51.530;5.050;2023-08-06T05:04:27;3.90;;;3.47;;
80891;SDS011;70343;51.530;5.050;2023-08-06T05:06:53;4.15;;;3.20;;
80891;SDS011;70343;51.530;5.050;2023-08-06T05:09:19;4.65;;;3.28;;
80891;SDS011;70343;51.530;5.050;2023-08-06T05:11:46;4.03;;;3.25;;
80891;SDS011;70343;51.530;5.050;2023-08-06T05:14:12;4.38;;;2.60;;
80891;SDS011;70343;51.530;5.050;2023-08-06T05:16:37;3.88;;;2.75;;
80891;SDS011;70343;51.530;5.050;2023-08-06T05:19:03;6.35;;;2.78;;
80891;SDS011;70343;51.530;5.050;2023-08-06T05:21:28;2.95;;;2.40;;
80891;SDS011;70343;51.530;5.050;2023-08-06T05:23:54;5.95;;;2.78;;
80891;SDS011;70343;51.530;5.050;2023-08-06T05:26:19;5.13;;;2.90;;
80891;SDS011;70343;51.530;5.050;2023-08-06T05:28:45;5.72;;;2.70;;
80891;SDS011;70343;51.530;5.050;2023-08-06T05:31:11;4.25;;;3.15;;
80891;SDS011;70343;51.530;5.050;2023-08-06T05:33:37;5.22;;;2.78;;
80891;SDS011;70343;51.530;5.050;2023-08-06T05:36:02;4.47;;;3.08;;
80891;SDS011;70343;51.530;5.050;2023-08-06T05:38:29;3.30;;;2.88;;
80891;SDS011;70343;51.530;5.050;2023-08-06T05:40:55;4.88;;;2.78;;
80891;SDS011;70343;51.530;5.050;2023-08-06T05:43:21;4.50;;;1.48;;
80891;SDS011;70343;51.530;5.050;2023-08-06T05:45:49;3.53;;;1.35;;
80891;SDS011;70343;51.530;5.050;2023-08-06T05:48:14;2.83;;;0.98;;
80891;SDS011;70343;51.530;5.050;2023-08-06T05:50:40;2.13;;;1.20;;
80891;SDS011;70343;51.530;5.050;2023-08-06T05:53:05;2.30;;;1.67;;
80891;SDS011;70343;51.530;5.050;2023-08-06T05:55:31;3.30;;;2.65;;
80891;SDS011;70343;51.530;5.050;2023-08-06T05:57:58;3.30;;;2.95;;
80891;SDS011;70343;51.530;5.050;2023-08-06T06:00:23;4.15;;;2.53;;
80891;SDS011;70343;51.530;5.050;2023-08-06T06:02:49;4.95;;;2.90;;
80891;SDS011;70343;51.530;5.050;2023-08-06T06:05:15;5.38;;;3.75;;
80891;SDS011;70343;51.530;5.050;2023-08-06T06:07:40;6.82;;;3.38;;
80891;SDS011;70343;51.530;5.050;2023-08-06T06:10:06;7.97;;;4.20;;
80891;SDS011;70343;51.530;5.050;2023-08-06T06:12:32;5.63;;;3.75;;
80891;SDS011;70343;51.530;5.050;2023-08-06T06:14:57;5.13;;;4.50;;
80891;SDS011;70343;51.530;5.050;2023-08-06T06:17:23;5.30;;;4.53;;
80891;SDS011;70343;51.530;5.050;2023-08-06T06:19:48;5.70;;;4.05;;
80891;SDS011;70343;51.530;5.050;2023-08-06T06:22:14;7.35;;;4.45;;
80891;SDS011;70343;51.530;5.050;2023-08-06T06:24:39;7.38;;;4.75;;
80891;SDS011;70343;51.530;5.050;2023-08-06T06:27:05;10.23;;;5.20;;
80891;SDS011;70343;51.530;5.050;2023-08-06T06:29:30;5.97;;;5.10;;
80891;SDS011;70343;51.530;5.050;2023-08-06T06:31:56;7.05;;;4.65;;
80891;SDS011;70343;51.530;5.050;2023-08-06T06:34:21;6.75;;;4.63;;
80891;SDS011;70343;51.530;5.050;2023-08-06T06:36:47;9.40;;;6.43;;
80891;SDS011;70343;51.530;5.050;2023-08-06T06:39:13;10.20;;;5.25;;
80891;SDS011;70343;51.530;5.050;2023-08-06T06:41:38;9.48;;;5.68;;
80891;SDS011;70343;51.530;5.050;2023-08-06T06:44:13;6.70;;;5.68;;
80891;SDS011;70343;51.530;5.050;2023-08-06T06:46:38;12.30;;;5.75;;
80891;SDS011;70343;51.530;5.050;2023-08-06T06:49:04;8.10;;;5.63;;
80891;SDS011;70343;51.530;5.050;2023-08-06T06:51:29;8.82;;;5.57;;
80891;SDS011;70343;51.530;5.050;2023-08-06T06:53:57;7.78;;;6.03;;
80891;SDS011;70343;51.530;5.050;2023-08-06T06:56:22;8.98;;;5.57;;
80891;SDS011;70343;51.530;5.050;2023-08-06T06:58:48;6.88;;;4.75;;
80891;SDS011;70343;51.530;5.050;2023-08-06T07:01:14;7.22;;;4.80;;
80891;SDS011;70343;51.530;5.050;2023-08-06T07:03:40;9.68;;;5.03;;
80891;SDS011;70343;51.530;5.050;2023-08-06T07:06:06;7.90;;;4.97;;
80891;SDS011;70343;51.530;5.050;2023-08-06T07:08:31;10.27;;;5.70;;
80891;SDS011;70343;51.530;5.050;2023-08-06T07:11:01;8.57;;;5.05;;
80891;SDS011;70343;51.530;5.050;2023-08-06T07:13:28;6.85;;;4.78;;
80891;SDS011;70343;51.530;5.050;2023-08-06T07:15:54;8.25;;;4.93;;
80891;SDS011;70343;51.530;5.050;2023-08-06T07:18:20;6.55;;;4.47;;
80891;SDS011;70343;51.530;5.050;2023-08-06T07:20:52;6.65;;;3.92;;
80891;SDS011;70343;51.530;5.050;2023-08-06T07:23:20;7.43;;;4.07;;
80891;SDS011;70343;51.530;5.050;2023-08-06T07:25:46;8.98;;;3.40;;
80891;SDS011;70343;51.530;5.050;2023-08-06T07:28:12;6.25;;;3.22;;
80891;SDS011;70343;51.530;5.050;2023-08-06T07:30:38;6.28;;;2.47;;
80891;SDS011;70343;51.530;5.050;2023-08-06T07:33:04;7.28;;;2.45;;
80891;SDS011;70343;51.530;5.050;2023-08-06T07:35:30;3.97;;;2.20;;
80891;SDS011;70343;51.530;5.050;2023-08-06T07:37:56;4.15;;;2.38;;
80891;SDS011;70343;51.530;5.050;2023-08-06T07:40:21;5.68;;;2.08;;
80891;SDS011;70343;51.530;5.050;2023-08-06T07:42:47;3.45;;;2.10;;
80891;SDS011;70343;51.530;5.050;2023-08-06T07:45:12;6.03;;;2.53;;
80891;SDS011;70343;51.530;5.050;2023-08-06T07:47:39;5.97;;;2.15;;
80891;SDS011;70343;51.530;5.050;2023-08-06T07:50:04;2.97;;;1.90;;
80891;SDS011;70343;51.530;5.050;2023-08-06T07:52:30;7.90;;;2.60;;
80891;SDS011;70343;51.530;5.050;2023-08-06T07:54:56;9.57;;;2.20;;
80891;SDS011;70343;51.530;5.050;2023-08-06T07:57:21;4.35;;;2.25;;
80891;SDS011;70343;51.530;5.050;2023-08-06T07:59:47;4.60;;;2.00;;
80891;SDS011;70343;51.530;5.050;2023-08-06T08:02:12;7.85;;;2.28;;
80891;SDS011;70343;51.530;5.050;2023-08-06T08:04:38;3.42;;;2.10;;
80891;SDS011;70343;51.530;5.050;2023-08-06T08:07:04;4.32;;;2.08;;
80891;SDS011;70343;51.530;5.050;2023-08-06T08:09:29;7.70;;;2.65;;
80891;SDS011;70343;51.530;5.050;2023-08-06T08:11:55;6.25;;;2.97;;
80891;SDS011;70343;51.530;5.050;2023-08-06T08:14:20;5.60;;;2.53;;
80891;SDS011;70343;51.530;5.050;2023-08-06T08:16:46;6.05;;;2.88;;
80891;SDS011;70343;51.530;5.050;2023-08-06T08:19:11;6.45;;;2.40;;
80891;SDS011;70343;51.530;5.050;2023-08-06T08:21:37;8.63;;;3.10;;
80891;SDS011;70343;51.530;5.050;2023-08-06T08:24:03;5.10;;;2.88;;
80891;SDS011;70343;51.530;5.050;2023-08-06T08:26:30;5.72;;;2.95;;
80891;SDS011;70343;51.530;5.050;2023-08-06T08:28:55;7.05;;;3.33;;
80891;SDS011;70343;51.530;5.050;2023-08-06T08:31:22;7.18;;;2.72;;
80891;SDS011;70343;51.530;5.050;2023-08-06T08:33:47;6.60;;;2.70;;
80891;SDS011;70343;51.530;5.050;2023-08-06T08:36:13;5.60;;;2.47;;
80891;SDS011;70343;51.530;5.050;2023-08-06T08:38:38;10.32;;;2.72;;
80891;SDS011;70343;51.530;5.050;2023-08-06T08:41:04;6.95;;;2.75;;
80891;SDS011;70343;51.530;5.050;2023-08-06T08:43:30;3.58;;;2.10;;
80891;SDS011;70343;51.530;5.050;2023-08-06T08:45:56;6.40;;;2.20;;
80891;SDS011;70343;51.530;5.050;2023-08-06T08:48:24;5.43;;;2.30;;
80891;SDS011;70343;51.530;5.050;2023-08-06T08:50:52;4.47;;;2.20;;
80891;SDS011;70343;51.530;5.050;2023-08-06T08:53:18;5.43;;;2.53;;
80891;SDS011;70343;51.530;5.050;2023-08-06T08:55:46;7.40;;;1.70;;
80891;SDS011;70343;51.530;5.050;2023-08-06T08:58:12;7.53;;;2.25;;
80891;SDS011;70343;51.530;5.050;2023-08-06T09:00:39;3.92;;;1.33;;
80891;SDS011;70343;51.530;5.050;2023-08-06T09:03:06;5.07;;;1.95;;
80891;SDS011;70343;51.530;5.050;2023-08-06T09:05:33;7.35;;;2.30;;
80891;SDS011;70343;51.530;5.050;2023-08-06T09:08:02;7.93;;;1.70;;
80891;SDS011;70343;51.530;5.050;2023-08-06T09:10:29;6.07;;;1.50;;
80891;SDS011;70343;51.530;5.050;2023-08-06T09:12:56;4.28;;;1.00;;
80891;SDS011;70343;51.530;5.050;2023-08-06T09:15:26;6.25;;;1.77;;
80891;SDS011;70343;51.530;5.050;2023-08-06T09:17:52;6.18;;;1.13;;
80891;SDS011;70343;51.530;5.050;2023-08-06T09:20:18;3.30;;;1.10;;
80891;SDS011;70343;51.530;5.050;2023-08-06T09:22:44;5.20;;;1.08;;
80891;SDS011;70343;51.530;5.050;2023-08-06T09:25:10;4.15;;;0.93;;
80891;SDS011;70343;51.530;5.050;2023-08-06T09:27:38;4.10;;;1.27;;
80891;SDS011;70343;51.530;5.050;2023-08-06T09:30:04;6.68;;;1.80;;
80891;SDS011;70343;51.530;5.050;2023-08-06T09:32:45;6.80;;;1.10;;
80891;SDS011;70343;51.530;5.050;2023-08-06T09:35:16;4.97;;;1.20;;
80891;SDS011;70343;51.530;5.050;2023-08-06T09:37:42;4.32;;;1.05;;
80891;SDS011;70343;51.530;5.050;2023-08-06T09:40:27;5.28;;;1.95;;
80891;SDS011;70343;51.530;5.050;2023-08-06T09:42:55;4.88;;;1.10;;
80891;SDS011;70343;51.530;5.050;2023-08-06T09:45:21;3.55;;;1.02;;
80891;SDS011;70343;51.530;5.050;2023-08-06T09:47:50;7.45;;;1.05;;
80891;SDS011;70343;51.530;5.050;2023-08-06T09:50:19;6.38;;;1.25;;
80891;SDS011;70343;51.530;5.050;2023-08-06T09:52:48;2.38;;;0.80;;
80891;SDS011;70343;51.530;5.050;2023-08-06T09:55:15;7.43;;;1.33;;
80891;SDS011;70343;51.530;5.050;2023-08-06T09:57:41;2.47;;;0.90;;
80891;SDS011;70343;51.530;5.050;2023-08-06T10:00:08;4.72;;;1.10;;
80891;SDS011;70343;51.530;5.050;2023-08-06T10:02:38;4.90;;;1.25;;
80891;SDS011;70343;51.530;5.050;2023-08-06T10:05:04;4.35;;;1.02;;
80891;SDS011;70343;51.530;5.050;2023-08-06T10:07:31;3.45;;;1.30;;
80891;SDS011;70343;51.530;5.050;2023-08-06T10:09:56;3.38;;;1.52;;
80891;SDS011;70343;51.530;5.050;2023-08-06T10:12:24;3.20;;;1.20;;
80891;SDS011;70343;51.530;5.050;2023-08-06T10:14:52;3.72;;;1.20;;
80891;SDS011;70343;51.530;5.050;2023-08-06T10:17:20;2.78;;;1.00;;
80891;SDS011;70343;51.530;5.050;2023-08-06T10:19:47;4.30;;;1.90;;
80891;SDS011;70343;51.530;5.050;2023-08-06T10:22:15;5.32;;;1.60;;
80891;SDS011;70343;51.530;5.050;2023-08-06T10:24:49;3.90;;;1.20;;
80891;SDS011;70343;51.530;5.050;2023-08-06T10:27:19;4.57;;;1.35;;
80891;SDS011;70343;51.530;5.050;2023-08-06T10:29:53;4.10;;;1.40;;
80891;SDS011;70343;51.530;5.050;2023-08-06T10:32:19;6.88;;;1.30;;
80891;SDS011;70343;51.530;5.050;2023-08-06T10:34:58;2.25;;;1.08;;
80891;SDS011;70343;51.530;5.050;2023-08-06T10:37:35;5.40;;;2.03;;
80891;SDS011;70343;51.530;5.050;2023-08-06T10:40:02;4.05;;;1.45;;
80891;SDS011;70343;51.530;5.050;2023-08-06T10:42:28;3.40;;;1.48;;
80891;SDS011;70343;51.530;5.050;2023-08-06T10:45:16;3.58;;;1.48;;
80891;SDS011;70343;51.530;5.050;2023-08-06T10:47:42;3.33;;;1.27;;
80891;SDS011;70343;51.530;5.050;2023-08-06T10:50:11;3.83;;;1.33;;
80891;SDS011;70343;51.530;5.050;2023-08-06T10:52:38;6.85;;;1.80;;
80891;SDS011;70343;51.530;5.050;2023-08-06T10:55:04;4.53;;;1.38;;
80891;SDS011;70343;51.530;5.050;2023-08-06T10:57:31;4.95;;;1.77;;
80891;SDS011;70343;51.530;5.050;2023-08-06T10:59:56;3.97;;;1.60;;
80891;SDS011;70343;51.530;5.050;2023-08-06T11:02:22;7.90;;;1.23;;
80891;SDS011;70343;51.530;5.050;2023-08-06T11:04:48;3.70;;;1.30;;
80891;SDS011;70343;51.530;5.050;2023-08-06T11:07:13;1.98;;;0.82;;
80891;SDS011;70343;51.530;5.050;2023-08-06T11:09:39;3.92;;;1.75;;
80891;SDS011;70343;51.530;5.050;2023-08-06T11:12:11;3.30;;;1.40;;
80891;SDS011;70343;51.530;5.050;2023-08-06T11:14:37;1.75;;;1.35;;
80891;SDS011;70343;51.530;5.050;2023-08-06T11:17:04;2.78;;;0.90;;
80891;SDS011;70343;51.530;5.050;2023-08-06T11:19:31;1.95;;;0.90;;
80891;SDS011;70343;51.530;5.050;2023-08-06T11:21:56;4.45;;;1.20;;
80891;SDS011;70343;51.530;5.050;2023-08-06T11:24:23;4.05;;;1.08;;
80891;SDS011;70343;51.530;5.050;2023-08-06T11:26:49;2.80;;;0.85;;
80891;SDS011;70343;51.530;5.050;2023-08-06T11:29:15;0.98;;;0.75;;
80891;SDS011;70343;51.530;5.050;2023-08-06T11:31:41;6.10;;;1.10;;
80891;SDS011;70343;51.530;5.050;2023-08-06T11:34:06;3.95;;;1.17;;
80891;SDS011;70343;51.530;5.050;2023-08-06T11:36:32;2.78;;;1.25;;
80891;SDS011;70343;51.530;5.050;2023-08-06T11:38:59;2.97;;;1.50;;
80891;SDS011;70343;51.530;5.050;2023-08-06T11:41:30;3.88;;;0.82;;
80891;SDS011;70343;51.530;5.050;2023-08-06T11:43:56;4.07;;;1.10;;
80891;SDS011;70343;51.530;5.050;2023-08-06T11:46:22;2.83;;;0.98;;
80891;SDS011;70343;51.530;5.050;2023-08-06T11:48:54;4.55;;;0.95;;
80891;SDS011;70343;51.530;5.050;2023-08-06T11:51:27;3.95;;;0.93;;
80891;SDS011;70343;51.530;5.050;2023-08-06T11:53:56;3.75;;;1.20;;
80891;SDS011;70343;51.530;5.050;2023-08-06T11:56:22;1.63;;;0.80;;
80891;SDS011;70343;51.530;5.050;2023-08-06T11:58:49;4.18;;;0.90;;
80891;SDS011;70343;51.530;5.050;2023-08-06T12:01:14;2.00;;;0.70;;
80891;SDS011;70343;51.530;5.050;2023-08-06T12:03:40;2.80;;;0.90;;
80891;SDS011;70343;51.530;5.050;2023-08-06T12:06:05;3.03;;;0.85;;
80891;SDS011;70343;51.530;5.050;2023-08-06T12:08:32;3.63;;;0.77;;
80891;SDS011;70343;51.530;5.050;2023-08-06T12:10:58;3.80;;;0.93;;
80891;SDS011;70343;51.530;5.050;2023-08-06T12:13:24;4.00;;;1.38;;
80891;SDS011;70343;51.530;5.050;2023-08-06T12:15:49;1.75;;;0.90;;
80891;SDS011;70343;51.530;5.050;2023-08-06T12:18:18;3.92;;;0.80;;
80891;SDS011;70343;51.530;5.050;2023-08-06T12:20:43;3.33;;;0.60;;
80891;SDS011;70343;51.530;5.050;2023-08-06T12:23:09;3.40;;;0.73;;
80891;SDS011;70343;51.530;5.050;2023-08-06T12:25:35;2.58;;;0.68;;
80891;SDS011;70343;51.530;5.050;2023-08-06T12:28:00;1.25;;;0.50;;
80891;SDS011;70343;51.530;5.050;2023-08-06T12:30:26;4.38;;;0.85;;
80891;SDS011;70343;51.530;5.050;2023-08-06T12:32:52;4.95;;;0.98;;
80891;SDS011;70343;51.530;5.050;2023-08-06T12:35:17;3.15;;;0.90;;
80891;SDS011;70343;51.530;5.050;2023-08-06T12:37:43;4.82;;;0.70;;
80891;SDS011;70343;51.530;5.050;2023-08-06T12:40:09;4.47;;;1.00;;
80891;SDS011;70343;51.530;5.050;2023-08-06T12:42:35;3.10;;;0.80;;
80891;SDS011;70343;51.530;5.050;2023-08-06T12:45:00;5.93;;;1.65;;
80891;SDS011;70343;51.530;5.050;2023-08-06T12:47:26;4.85;;;1.20;;
80891;SDS011;70343;51.530;5.050;2023-08-06T12:49:51;3.35;;;1.02;;
80891;SDS011;70343;51.530;5.050;2023-08-06T12:52:17;3.53;;;0.50;;
80891;SDS011;70343;51.530;5.050;2023-08-06T12:54:44;3.67;;;0.80;;
80891;SDS011;70343;51.530;5.050;2023-08-06T12:57:11;4.05;;;2.00;;
80891;SDS011;70343;51.530;5.050;2023-08-06T12:59:37;5.47;;;1.20;;
80891;SDS011;70343;51.530;5.050;2023-08-06T13:02:02;6.07;;;0.90;;
80891;SDS011;70343;51.530;5.050;2023-08-06T13:04:28;2.78;;;0.95;;
80891;SDS011;70343;51.530;5.050;2023-08-06T13:06:54;2.17;;;0.80;;
80891;SDS011;70343;51.530;5.050;2023-08-06T13:09:20;3.17;;;1.17;;
80891;SDS011;70343;51.530;5.050;2023-08-06T13:11:45;3.85;;;1.38;;
80891;SDS011;70343;51.530;5.050;2023-08-06T13:14:12;2.63;;;1.27;;
80891;SDS011;70343;51.530;5.050;2023-08-06T13:16:39;7.50;;;1.30;;
80891;SDS011;70343;51.530;5.050;2023-08-06T13:19:06;4.88;;;1.58;;
80891;SDS011;70343;51.530;5.050;2023-08-06T13:21:32;4.07;;;1.17;;
80891;SDS011;70343;51.530;5.050;2023-08-06T13:23:58;3.40;;;1.20;;
80891;SDS011;70343;51.530;5.050;2023-08-06T13:26:24;6.07;;;1.52;;
80891;SDS011;70343;51.530;5.050;2023-08-06T13:28:50;4.00;;;1.23;;
80891;SDS011;70343;51.530;5.050;2023-08-06T13:31:16;5.43;;;2.38;;
80891;SDS011;70343;51.530;5.050;2023-08-06T13:33:41;7.25;;;2.47;;
80891;SDS011;70343;51.530;5.050;2023-08-06T13:36:07;6.20;;;1.75;;
80891;SDS011;70343;51.530;5.050;2023-08-06T13:38:32;3.53;;;0.95;;
80891;SDS011;70343;51.530;5.050;2023-08-06T13:40:58;3.53;;;1.20;;
80891;SDS011;70343;51.530;5.050;2023-08-06T13:43:24;3.60;;;1.17;;
80891;SDS011;70343;51.530;5.050;2023-08-06T13:45:49;4.03;;;1.10;;
80891;SDS011;70343;51.530;5.050;2023-08-06T13:48:15;5.40;;;1.25;;
80891;SDS011;70343;51.530;5.050;2023-08-06T13:50:40;2.15;;;1.50;;
80891;SDS011;70343;51.530;5.050;2023-08-06T13:53:06;1.65;;;1.23;;
80891;SDS011;70343;51.530;5.050;2023-08-06T13:55:31;3.22;;;0.95;;
80891;SDS011;70343;51.530;5.050;2023-08-06T13:57:57;4.90;;;1.23;;
80891;SDS011;70343;51.530;5.050;2023-08-06T14:00:22;3.72;;;1.45;;
80891;SDS011;70343;51.530;5.050;2023-08-06T14:02:48;3.63;;;1.20;;
80891;SDS011;70343;51.530;5.050;2023-08-06T14:05:13;3.00;;;1.15;;
80891;SDS011;70343;51.530;5.050;2023-08-06T14:07:39;2.15;;;0.90;;
80891;SDS011;70343;51.530;5.050;2023-08-06T14:10:05;3.85;;;0.93;;
80891;SDS011;70343;51.530;5.050;2023-08-06T14:12:31;6.45;;;1.10;;
80891;SDS011;70343;51.530;5.050;2023-08-06T14:14:56;5.22;;;0.70;;
80891;SDS011;70343;51.530;5.050;2023-08-06T14:17:22;2.92;;;0.93;;
80891;SDS011;70343;51.530;5.050;2023-08-06T14:19:47;4.40;;;1.00;;
80891;SDS011;70343;51.530;5.050;2023-08-06T14:22:13;5.18;;;1.17;;
80891;SDS011;70343;51.530;5.050;2023-08-06T14:24:38;6.97;;;1.02;;
80891;SDS011;70343;51.530;5.050;2023-08-06T14:27:04;3.15;;;1.10;;
80891;SDS011;70343;51.530;5.050;2023-08-06T14:29:31;2.88;;;0.90;;
80891;SDS011;70343;51.530;5.050;2023-08-06T14:31:56;5.85;;;1.02;;
80891;SDS011;70343;51.530;5.050;2023-08-06T14:34:22;6.13;;;0.95;;
80891;SDS011;70343;51.530;5.050;2023-08-06T14:36:48;2.38;;;0.68;;
80891;SDS011;70343;51.530;5.050;2023-08-06T14:39:13;5.80;;;1.00;;
80891;SDS011;70343;51.530;5.050;2023-08-06T14:41:39;2.58;;;0.98;;
80891;SDS011;70343;51.530;5.050;2023-08-06T14:44:05;4.53;;;0.90;;
80891;SDS011;70343;51.530;5.050;2023-08-06T14:46:32;2.42;;;0.55;;
80891;SDS011;70343;51.530;5.050;2023-08-06T14:48:58;2.67;;;0.85;;